sensor_id;sensor_type;location;lat;lon;timestamp;P1;durP1;ratioP1;P2;durP2;ratioP2
18188;SDS011;9219;50.396;8.546;2023-02-01T00:03:16;28.07;;;10.40;;
18188;SDS011;9219;50.396;8.546;2023-02-01T00:05:44;24.80;;;9.57;;
18188;SDS011;9219;50.396;8.546;2023-02-01T00:08:21;20.70;;;9.73;;
18188;SDS011;9219;50.396;8.546;2023-02-01T00:10:58;20.03;;;10.47;;
18188;SDS011;9219;50.396;8.546;2023-02-01T00:13:28;15.70;;;8.57;;
18188;SDS011;9219;50.396;8.546;2023-02-01T00:18:46;18.30;;;10.10;;
18188;SDS011;9219;50.396;8.546;2023-02-01T00:21:15;22.03;;;9.37;;
18188;SDS011;9219;50.396;8.546;2023-02-01T00:26:30;26.70;;;10.60;;
18188;SDS011;9219;50.396;8.546;2023-02-01T00:29:10;32.60;;;12.30;;
18188;SDS011;9219;50.396;8.546;2023-02-01T00:31:55;31.20;;;11.53;;
18188;SDS011;9219;50.396;8.546;2023-02-01T00:34:34;19.73;;;9.73;;
18188;SDS011;9219;50.396;8.546;2023-02-01T00:37:02;28.43;;;12.10;;
18188;SDS011;9219;50.396;8.546;2023-02-01T00:40:04;27.30;;;12.50;;
18188;SDS011;9219;50.396;8.546;2023-02-01T00:42:49;32.97;;;12.77;;
18188;SDS011;9219;50.396;8.546;2023-02-01T00:45:19;24.00;;;12.27;;
18188;SDS011;9219;50.396;8.546;2023-02-01T00:55:25;27.70;;;12.27;;
18188;SDS011;9219;50.396;8.546;2023-02-01T00:58:03;31.23;;;13.93;;
18188;SDS011;9219;50.396;8.546;2023-02-01T01:00:36;31.90;;;14.30;;
18188;SDS011;9219;50.396;8.546;2023-02-01T01:03:08;23.43;;;11.83;;
18188;SDS011;9219;50.396;8.546;2023-02-01T01:05:43;26.83;;;11.57;;
18188;SDS011;9219;50.396;8.546;2023-02-01T01:08:13;29.30;;;12.73;;
18188;SDS011;9219;50.396;8.546;2023-02-01T01:11:09;25.97;;;11.20;;
18188;SDS011;9219;50.396;8.546;2023-02-01T01:13:51;35.50;;;11.90;;
18188;SDS011;9219;50.396;8.546;2023-02-01T01:16:24;23.60;;;13.00;;
18188;SDS011;9219;50.396;8.546;2023-02-01T01:18:58;27.27;;;11.57;;
18188;SDS011;9219;50.396;8.546;2023-02-01T01:28:57;27.63;;;11.33;;
18188;SDS011;9219;50.396;8.546;2023-02-01T01:31:26;17.60;;;10.53;;
18188;SDS011;9219;50.396;8.546;2023-02-01T01:33:58;28.40;;;12.83;;
18188;SDS011;9219;50.396;8.546;2023-02-01T01:36:32;15.40;;;8.37;;
18188;SDS011;9219;50.396;8.546;2023-02-01T01:39:21;23.90;;;11.20;;
18188;SDS011;9219;50.396;8.546;2023-02-01T01:41:52;21.10;;;9.60;;
18188;SDS011;9219;50.396;8.546;2023-02-01T01:47:30;17.17;;;8.13;;
18188;SDS011;9219;50.396;8.546;2023-02-01T01:53:16;17.03;;;9.17;;
18188;SDS011;9219;50.396;8.546;2023-02-01T01:55:51;20.37;;;10.40;;
18188;SDS011;9219;50.396;8.546;2023-02-01T01:58:27;17.80;;;8.30;;
18188;SDS011;9219;50.396;8.546;2023-02-01T02:01:00;30.07;;;11.03;;
18188;SDS011;9219;50.396;8.546;2023-02-01T02:03:34;14.80;;;8.43;;
18188;SDS011;9219;50.396;8.546;2023-02-01T02:06:10;19.10;;;9.47;;
18188;SDS011;9219;50.396;8.546;2023-02-01T02:08:51;24.60;;;9.60;;
18188;SDS011;9219;50.396;8.546;2023-02-01T02:16:29;18.93;;;8.37;;
18188;SDS011;9219;50.396;8.546;2023-02-01T02:19:20;15.77;;;9.57;;
18188;SDS011;9219;50.396;8.546;2023-02-01T02:22:27;18.30;;;7.57;;
18188;SDS011;9219;50.396;8.546;2023-02-01T02:25:35;26.53;;;10.50;;
18188;SDS011;9219;50.396;8.546;2023-02-01T02:28:36;23.87;;;9.70;;
18188;SDS011;9219;50.396;8.546;2023-02-01T02:31:38;16.13;;;7.97;;
18188;SDS011;9219;50.396;8.546;2023-02-01T02:34:22;16.70;;;9.10;;
18188;SDS011;9219;50.396;8.546;2023-02-01T02:36:58;18.63;;;8.13;;
18188;SDS011;9219;50.396;8.546;2023-02-01T02:42:41;18.63;;;10.10;;
18188;SDS011;9219;50.396;8.546;2023-02-01T02:45:38;16.97;;;7.27;;
18188;SDS011;9219;50.396;8.546;2023-02-01T02:48:34;12.63;;;6.53;;
18188;SDS011;9219;50.396;8.546;2023-02-01T02:51:12;23.87;;;7.07;;
18188;SDS011;9219;50.396;8.546;2023-02-01T02:54:01;11.00;;;6.23;;
18188;SDS011;9219;50.396;8.546;2023-02-01T02:56:50;13.00;;;7.33;;
18188;SDS011;9219;50.396;8.546;2023-02-01T03:04:38;13.97;;;7.03;;
18188;SDS011;9219;50.396;8.546;2023-02-01T03:07:13;15.43;;;6.53;;
18188;SDS011;9219;50.396;8.546;2023-02-01T03:10:02;10.27;;;4.83;;
18188;SDS011;9219;50.396;8.546;2023-02-01T03:12:31;16.10;;;5.53;;
18188;SDS011;9219;50.396;8.546;2023-02-01T03:15:21;13.60;;;4.80;;
18188;SDS011;9219;50.396;8.546;2023-02-01T03:17:53;17.00;;;5.07;;
18188;SDS011;9219;50.396;8.546;2023-02-01T03:20:26;11.50;;;4.37;;
18188;SDS011;9219;50.396;8.546;2023-02-01T03:22:59;13.90;;;3.80;;
18188;SDS011;9219;50.396;8.546;2023-02-01T03:30:53;17.83;;;5.30;;
18188;SDS011;9219;50.396;8.546;2023-02-01T03:33:21;13.33;;;4.03;;
18188;SDS011;9219;50.396;8.546;2023-02-01T03:35:55;14.53;;;4.27;;
18188;SDS011;9219;50.396;8.546;2023-02-01T03:38:36;15.67;;;4.10;;
18188;SDS011;9219;50.396;8.546;2023-02-01T03:41:09;13.43;;;4.37;;
18188;SDS011;9219;50.396;8.546;2023-02-01T03:43:46;15.57;;;3.10;;
18188;SDS011;9219;50.396;8.546;2023-02-01T03:46:24;9.60;;;3.83;;
18188;SDS011;9219;50.396;8.546;2023-02-01T03:52:07;15.57;;;4.00;;
18188;SDS011;9219;50.396;8.546;2023-02-01T03:54:38;16.73;;;4.50;;
18188;SDS011;9219;50.396;8.546;2023-02-01T03:57:10;11.10;;;3.07;;
18188;SDS011;9219;50.396;8.546;2023-02-01T03:59:40;14.43;;;3.57;;
18188;SDS011;9219;50.396;8.546;2023-02-01T04:02:08;13.90;;;3.83;;
18188;SDS011;9219;50.396;8.546;2023-02-01T04:04:40;15.40;;;4.17;;
18188;SDS011;9219;50.396;8.546;2023-02-01T04:07:15;13.13;;;4.27;;
18188;SDS011;9219;50.396;8.546;2023-02-01T04:12:35;12.53;;;3.33;;
18188;SDS011;9219;50.396;8.546;2023-02-01T04:15:03;11.57;;;3.73;;
18188;SDS011;9219;50.396;8.546;2023-02-01T04:17:42;17.53;;;3.70;;
18188;SDS011;9219;50.396;8.546;2023-02-01T04:20:10;12.37;;;3.97;;
18188;SDS011;9219;50.396;8.546;2023-02-01T04:22:38;11.57;;;3.53;;
18188;SDS011;9219;50.396;8.546;2023-02-01T04:25:13;19.20;;;5.10;;
18188;SDS011;9219;50.396;8.546;2023-02-01T04:27:43;13.40;;;4.63;;
18188;SDS011;9219;50.396;8.546;2023-02-01T04:30:13;17.17;;;4.13;;
18188;SDS011;9219;50.396;8.546;2023-02-01T04:32:41;12.23;;;3.50;;
18188;SDS011;9219;50.396;8.546;2023-02-01T04:40:17;16.13;;;4.77;;
18188;SDS011;9219;50.396;8.546;2023-02-01T04:42:47;19.53;;;5.17;;
18188;SDS011;9219;50.396;8.546;2023-02-01T04:45:17;14.57;;;3.73;;
18188;SDS011;9219;50.396;8.546;2023-02-01T04:47:45;10.90;;;3.60;;
18188;SDS011;9219;50.396;8.546;2023-02-01T04:50:14;16.43;;;4.47;;
18188;SDS011;9219;50.396;8.546;2023-02-01T04:52:43;10.57;;;3.63;;
18188;SDS011;9219;50.396;8.546;2023-02-01T04:55:16;17.13;;;4.97;;
18188;SDS011;9219;50.396;8.546;2023-02-01T04:57:44;14.50;;;4.00;;
18188;SDS011;9219;50.396;8.546;2023-02-01T05:04:28;13.00;;;4.03;;
18188;SDS011;9219;50.396;8.546;2023-02-01T05:06:55;12.93;;;3.40;;
18188;SDS011;9219;50.396;8.546;2023-02-01T05:09:37;9.17;;;3.43;;
18188;SDS011;9219;50.396;8.546;2023-02-01T05:12:12;16.40;;;5.00;;
18188;SDS011;9219;50.396;8.546;2023-02-01T05:14:57;9.33;;;3.67;;
18188;SDS011;9219;50.396;8.546;2023-02-01T05:17:25;12.53;;;4.03;;
18188;SDS011;9219;50.396;8.546;2023-02-01T05:19:59;12.00;;;3.13;;
18188;SDS011;9219;50.396;8.546;2023-02-01T05:22:45;10.83;;;3.03;;
18188;SDS011;9219;50.396;8.546;2023-02-01T05:30:30;7.23;;;3.87;;
18188;SDS011;9219;50.396;8.546;2023-02-01T05:33:04;10.87;;;3.07;;
18188;SDS011;9219;50.396;8.546;2023-02-01T05:35:32;11.30;;;3.17;;
18188;SDS011;9219;50.396;8.546;2023-02-01T05:38:00;6.20;;;2.83;;
18188;SDS011;9219;50.396;8.546;2023-02-01T05:40:29;18.87;;;4.93;;
18188;SDS011;9219;50.396;8.546;2023-02-01T05:42:57;13.57;;;4.97;;
18188;SDS011;9219;50.396;8.546;2023-02-01T05:45:31;21.97;;;3.70;;
18188;SDS011;9219;50.396;8.546;2023-02-01T05:53:06;18.20;;;3.23;;
18188;SDS011;9219;50.396;8.546;2023-02-01T05:55:37;12.57;;;3.37;;
18188;SDS011;9219;50.396;8.546;2023-02-01T05:58:05;17.73;;;4.43;;
18188;SDS011;9219;50.396;8.546;2023-02-01T06:00:33;8.67;;;3.77;;
18188;SDS011;9219;50.396;8.546;2023-02-01T06:03:01;15.73;;;4.23;;
18188;SDS011;9219;50.396;8.546;2023-02-01T06:05:29;22.20;;;5.97;;
18188;SDS011;9219;50.396;8.546;2023-02-01T06:07:59;6.73;;;3.27;;
18188;SDS011;9219;50.396;8.546;2023-02-01T06:10:33;19.40;;;5.07;;
18188;SDS011;9219;50.396;8.546;2023-02-01T06:13:01;16.60;;;5.40;;
18188;SDS011;9219;50.396;8.546;2023-02-01T06:20:19;13.07;;;3.17;;
18188;SDS011;9219;50.396;8.546;2023-02-01T06:22:48;12.63;;;4.20;;
18188;SDS011;9219;50.396;8.546;2023-02-01T06:25:16;13.30;;;3.77;;
18188;SDS011;9219;50.396;8.546;2023-02-01T06:27:46;22.23;;;3.60;;
18188;SDS011;9219;50.396;8.546;2023-02-01T06:30:17;7.53;;;2.97;;
18188;SDS011;9219;50.396;8.546;2023-02-01T06:32:51;10.40;;;2.90;;
18188;SDS011;9219;50.396;8.546;2023-02-01T06:35:21;12.20;;;3.83;;
18188;SDS011;9219;50.396;8.546;2023-02-01T06:43:01;18.00;;;3.93;;
18188;SDS011;9219;50.396;8.546;2023-02-01T06:45:34;11.27;;;3.03;;
18188;SDS011;9219;50.396;8.546;2023-02-01T06:48:02;17.33;;;3.77;;
18188;SDS011;9219;50.396;8.546;2023-02-01T06:50:33;10.87;;;3.33;;
18188;SDS011;9219;50.396;8.546;2023-02-01T06:53:03;19.37;;;4.87;;
18188;SDS011;9219;50.396;8.546;2023-02-01T06:55:35;9.43;;;3.63;;
18188;SDS011;9219;50.396;8.546;2023-02-01T06:58:06;19.50;;;5.50;;
18188;SDS011;9219;50.396;8.546;2023-02-01T07:05:40;24.73;;;5.90;;
18188;SDS011;9219;50.396;8.546;2023-02-01T07:08:07;11.23;;;3.33;;
18188;SDS011;9219;50.396;8.546;2023-02-01T07:10:35;11.17;;;3.50;;
18188;SDS011;9219;50.396;8.546;2023-02-01T07:13:03;15.63;;;3.53;;
18188;SDS011;9219;50.396;8.546;2023-02-01T07:15:31;14.90;;;3.83;;
18188;SDS011;9219;50.396;8.546;2023-02-01T07:17:59;15.53;;;2.90;;
18188;SDS011;9219;50.396;8.546;2023-02-01T07:20:34;13.30;;;4.00;;
18188;SDS011;9219;50.396;8.546;2023-02-01T07:23:04;24.90;;;4.70;;
18188;SDS011;9219;50.396;8.546;2023-02-01T07:29:53;20.70;;;3.63;;
18188;SDS011;9219;50.396;8.546;2023-02-01T07:32:22;15.17;;;2.90;;
18188;SDS011;9219;50.396;8.546;2023-02-01T07:34:50;11.47;;;3.17;;
18188;SDS011;9219;50.396;8.546;2023-02-01T07:37:20;15.23;;;3.50;;
18188;SDS011;9219;50.396;8.546;2023-02-01T07:39:47;14.80;;;3.90;;
18188;SDS011;9219;50.396;8.546;2023-02-01T07:42:16;9.27;;;3.43;;
18188;SDS011;9219;50.396;8.546;2023-02-01T07:44:44;13.57;;;3.80;;
18188;SDS011;9219;50.396;8.546;2023-02-01T07:52:21;11.60;;;2.63;;
18188;SDS011;9219;50.396;8.546;2023-02-01T07:54:49;23.17;;;5.47;;
18188;SDS011;9219;50.396;8.546;2023-02-01T07:57:37;14.70;;;3.67;;
18188;SDS011;9219;50.396;8.546;2023-02-01T08:00:18;12.07;;;3.37;;
18188;SDS011;9219;50.396;8.546;2023-02-01T08:03:17;15.30;;;3.73;;
18188;SDS011;9219;50.396;8.546;2023-02-01T08:05:53;15.70;;;2.90;;
18188;SDS011;9219;50.396;8.546;2023-02-01T08:08:42;14.30;;;4.83;;
18188;SDS011;9219;50.396;8.546;2023-02-01T08:16:17;16.87;;;3.97;;
18188;SDS011;9219;50.396;8.546;2023-02-01T08:19:00;14.50;;;3.10;;
18188;SDS011;9219;50.396;8.546;2023-02-01T08:21:36;14.97;;;3.00;;
18188;SDS011;9219;50.396;8.546;2023-02-01T08:24:07;17.90;;;3.87;;
18188;SDS011;9219;50.396;8.546;2023-02-01T08:26:43;14.67;;;4.37;;
18188;SDS011;9219;50.396;8.546;2023-02-01T08:29:20;14.27;;;4.87;;
18188;SDS011;9219;50.396;8.546;2023-02-01T08:31:51;19.27;;;3.63;;
18188;SDS011;9219;50.396;8.546;2023-02-01T08:42:16;8.77;;;2.73;;
18188;SDS011;9219;50.396;8.546;2023-02-01T08:45:02;12.67;;;3.10;;
18188;SDS011;9219;50.396;8.546;2023-02-01T08:47:47;14.07;;;3.40;;
18188;SDS011;9219;50.396;8.546;2023-02-01T08:50:15;10.50;;;3.53;;
18188;SDS011;9219;50.396;8.546;2023-02-01T08:52:46;8.57;;;2.67;;
18188;SDS011;9219;50.396;8.546;2023-02-01T09:01:17;13.23;;;3.57;;
18188;SDS011;9219;50.396;8.546;2023-02-01T09:03:45;11.20;;;3.17;;
18188;SDS011;9219;50.396;8.546;2023-02-01T09:06:13;9.63;;;3.20;;
18188;SDS011;9219;50.396;8.546;2023-02-01T09:08:41;8.23;;;3.27;;
18188;SDS011;9219;50.396;8.546;2023-02-01T09:11:16;11.57;;;2.83;;
18188;SDS011;9219;50.396;8.546;2023-02-01T09:13:45;15.70;;;4.00;;
18188;SDS011;9219;50.396;8.546;2023-02-01T09:16:13;11.13;;;3.63;;
18188;SDS011;9219;50.396;8.546;2023-02-01T09:18:41;7.20;;;2.70;;
18188;SDS011;9219;50.396;8.546;2023-02-01T09:21:30;10.30;;;3.00;;
18188;SDS011;9219;50.396;8.546;2023-02-01T09:24:04;11.77;;;4.63;;
18188;SDS011;9219;50.396;8.546;2023-02-01T09:26:42;11.60;;;2.93;;
18188;SDS011;9219;50.396;8.546;2023-02-01T09:29:10;10.47;;;4.00;;
18188;SDS011;9219;50.396;8.546;2023-02-01T09:31:38;15.37;;;4.10;;
18188;SDS011;9219;50.396;8.546;2023-02-01T09:34:22;13.00;;;2.93;;
18188;SDS011;9219;50.396;8.546;2023-02-01T09:37:05;12.93;;;3.47;;
18188;SDS011;9219;50.396;8.546;2023-02-01T09:39:32;12.10;;;3.33;;
18188;SDS011;9219;50.396;8.546;2023-02-01T09:47:08;24.30;;;3.57;;
18188;SDS011;9219;50.396;8.546;2023-02-01T09:49:39;11.40;;;3.50;;
18188;SDS011;9219;50.396;8.546;2023-02-01T09:52:16;16.30;;;3.53;;
18188;SDS011;9219;50.396;8.546;2023-02-01T09:54:52;15.93;;;4.30;;
18188;SDS011;9219;50.396;8.546;2023-02-01T09:57:30;13.50;;;4.37;;
18188;SDS011;9219;50.396;8.546;2023-02-01T10:00:14;8.47;;;3.13;;
18188;SDS011;9219;50.396;8.546;2023-02-01T10:05:30;14.10;;;3.50;;
18188;SDS011;9219;50.396;8.546;2023-02-01T10:08:23;12.77;;;3.87;;
18188;SDS011;9219;50.396;8.546;2023-02-01T10:10:57;11.83;;;3.03;;
18188;SDS011;9219;50.396;8.546;2023-02-01T10:13:39;12.07;;;4.10;;
18188;SDS011;9219;50.396;8.546;2023-02-01T10:16:23;12.77;;;3.73;;
18188;SDS011;9219;50.396;8.546;2023-02-01T10:19:02;12.03;;;3.07;;
18188;SDS011;9219;50.396;8.546;2023-02-01T10:24:40;25.87;;;3.70;;
18188;SDS011;9219;50.396;8.546;2023-02-01T10:27:13;14.00;;;3.60;;
18188;SDS011;9219;50.396;8.546;2023-02-01T10:29:48;15.90;;;4.37;;
18188;SDS011;9219;50.396;8.546;2023-02-01T10:32:24;8.50;;;2.90;;
18188;SDS011;9219;50.396;8.546;2023-02-01T10:35:08;8.97;;;4.33;;
18188;SDS011;9219;50.396;8.546;2023-02-01T10:37:44;16.40;;;3.90;;
18188;SDS011;9219;50.396;8.546;2023-02-01T10:40:16;10.03;;;3.80;;
18188;SDS011;9219;50.396;8.546;2023-02-01T10:47:55;13.60;;;4.20;;
18188;SDS011;9219;50.396;8.546;2023-02-01T10:50:31;8.77;;;3.13;;
18188;SDS011;9219;50.396;8.546;2023-02-01T10:53:08;12.37;;;3.67;;
18188;SDS011;9219;50.396;8.546;2023-02-01T10:55:48;7.70;;;3.03;;
18188;SDS011;9219;50.396;8.546;2023-02-01T10:58:20;16.07;;;3.50;;
18188;SDS011;9219;50.396;8.546;2023-02-01T11:00:57;14.17;;;4.10;;
18188;SDS011;9219;50.396;8.546;2023-02-01T11:06:24;11.27;;;3.13;;
18188;SDS011;9219;50.396;8.546;2023-02-01T11:08:56;9.17;;;2.77;;
18188;SDS011;9219;50.396;8.546;2023-02-01T11:11:25;6.93;;;3.23;;
18188;SDS011;9219;50.396;8.546;2023-02-01T11:13:56;13.67;;;3.53;;
18188;SDS011;9219;50.396;8.546;2023-02-01T11:16:33;14.00;;;3.20;;
18188;SDS011;9219;50.396;8.546;2023-02-01T11:19:04;13.93;;;2.67;;
18188;SDS011;9219;50.396;8.546;2023-02-01T11:21:37;8.40;;;3.33;;
18188;SDS011;9219;50.396;8.546;2023-02-01T11:24:06;11.40;;;3.13;;
18188;SDS011;9219;50.396;8.546;2023-02-01T11:31:46;12.43;;;3.40;;
18188;SDS011;9219;50.396;8.546;2023-02-01T11:34:17;9.57;;;3.23;;
18188;SDS011;9219;50.396;8.546;2023-02-01T11:36:51;14.37;;;3.57;;
18188;SDS011;9219;50.396;8.546;2023-02-01T11:39:25;12.70;;;3.93;;
18188;SDS011;9219;50.396;8.546;2023-02-01T11:42:01;14.77;;;3.20;;
18188;SDS011;9219;50.396;8.546;2023-02-01T11:44:42;14.70;;;3.97;;
18188;SDS011;9219;50.396;8.546;2023-02-01T11:47:20;11.00;;;3.20;;
18188;SDS011;9219;50.396;8.546;2023-02-01T11:54:38;15.60;;;5.63;;
18188;SDS011;9219;50.396;8.546;2023-02-01T11:57:27;11.50;;;4.87;;
18188;SDS011;9219;50.396;8.546;2023-02-01T12:00:15;10.17;;;2.67;;
18188;SDS011;9219;50.396;8.546;2023-02-01T12:03:19;16.97;;;3.67;;
18188;SDS011;9219;50.396;8.546;2023-02-01T12:06:05;10.43;;;3.60;;
18188;SDS011;9219;50.396;8.546;2023-02-01T12:08:51;10.23;;;3.40;;
18188;SDS011;9219;50.396;8.546;2023-02-01T12:11:40;10.73;;;2.80;;
18188;SDS011;9219;50.396;8.546;2023-02-01T12:20:21;12.37;;;3.13;;
18188;SDS011;9219;50.396;8.546;2023-02-01T12:23:03;9.07;;;2.47;;
18188;SDS011;9219;50.396;8.546;2023-02-01T12:25:44;12.03;;;3.27;;
18188;SDS011;9219;50.396;8.546;2023-02-01T12:28:33;9.73;;;2.27;;
18188;SDS011;9219;50.396;8.546;2023-02-01T12:31:41;13.80;;;4.00;;
18188;SDS011;9219;50.396;8.546;2023-02-01T12:38:53;10.57;;;2.33;;
18188;SDS011;9219;50.396;8.546;2023-02-01T12:41:45;18.53;;;4.33;;
18188;SDS011;9219;50.396;8.546;2023-02-01T12:44:35;16.00;;;3.50;;
18188;SDS011;9219;50.396;8.546;2023-02-01T12:47:14;11.43;;;2.30;;
18188;SDS011;9219;50.396;8.546;2023-02-01T12:49:52;13.13;;;2.87;;
18188;SDS011;9219;50.396;8.546;2023-02-01T12:52:32;10.13;;;2.97;;
18188;SDS011;9219;50.396;8.546;2023-02-01T12:55:10;13.23;;;3.70;;
18188;SDS011;9219;50.396;8.546;2023-02-01T13:02:56;6.87;;;2.43;;
18188;SDS011;9219;50.396;8.546;2023-02-01T13:05:36;8.00;;;2.80;;
18188;SDS011;9219;50.396;8.546;2023-02-01T13:08:20;10.00;;;2.57;;
18188;SDS011;9219;50.396;8.546;2023-02-01T13:10:56;14.27;;;2.57;;
18188;SDS011;9219;50.396;8.546;2023-02-01T13:13:28;9.13;;;2.73;;
18188;SDS011;9219;50.396;8.546;2023-02-01T13:16:05;7.73;;;2.80;;
18188;SDS011;9219;50.396;8.546;2023-02-01T13:22:27;6.40;;;2.33;;
18188;SDS011;9219;50.396;8.546;2023-02-01T13:25:01;15.63;;;3.97;;
18188;SDS011;9219;50.396;8.546;2023-02-01T13:27:46;15.30;;;3.00;;
18188;SDS011;9219;50.396;8.546;2023-02-01T13:30:18;6.50;;;2.10;;
18188;SDS011;9219;50.396;8.546;2023-02-01T13:36:11;10.20;;;3.23;;
18188;SDS011;9219;50.396;8.546;2023-02-01T13:44:14;10.73;;;3.17;;
18188;SDS011;9219;50.396;8.546;2023-02-01T13:46:46;5.50;;;2.97;;
18188;SDS011;9219;50.396;8.546;2023-02-01T13:49:19;8.00;;;2.33;;
18188;SDS011;9219;50.396;8.546;2023-02-01T13:51:51;5.13;;;2.40;;
18188;SDS011;9219;50.396;8.546;2023-02-01T13:54:36;7.93;;;2.77;;
18188;SDS011;9219;50.396;8.546;2023-02-01T13:57:39;7.87;;;2.20;;
18188;SDS011;9219;50.396;8.546;2023-02-01T14:03:14;18.93;;;2.50;;
18188;SDS011;9219;50.396;8.546;2023-02-01T14:05:59;8.03;;;3.23;;
18188;SDS011;9219;50.396;8.546;2023-02-01T14:11:41;7.57;;;2.10;;
18188;SDS011;9219;50.396;8.546;2023-02-01T14:23:38;14.37;;;2.73;;
18188;SDS011;9219;50.396;8.546;2023-02-01T14:26:13;8.63;;;2.00;;
18188;SDS011;9219;50.396;8.546;2023-02-01T14:28:49;8.53;;;2.50;;
18188;SDS011;9219;50.396;8.546;2023-02-01T14:34:22;6.13;;;2.67;;
18188;SDS011;9219;50.396;8.546;2023-02-01T14:37:01;11.10;;;2.17;;
18188;SDS011;9219;50.396;8.546;2023-02-01T14:39:52;7.10;;;3.03;;
18188;SDS011;9219;50.396;8.546;2023-02-01T14:51:15;9.87;;;1.63;;
18188;SDS011;9219;50.396;8.546;2023-02-01T14:53:45;13.10;;;2.33;;
18188;SDS011;9219;50.396;8.546;2023-02-01T14:56:17;8.87;;;1.83;;
18188;SDS011;9219;50.396;8.546;2023-02-01T14:58:55;10.60;;;2.90;;
18188;SDS011;9219;50.396;8.546;2023-02-01T15:01:31;18.90;;;3.43;;
18188;SDS011;9219;50.396;8.546;2023-02-01T15:09:07;7.13;;;2.33;;
18188;SDS011;9219;50.396;8.546;2023-02-01T15:11:56;9.47;;;2.70;;
18188;SDS011;9219;50.396;8.546;2023-02-01T15:14:32;11.30;;;3.50;;
18188;SDS011;9219;50.396;8.546;2023-02-01T15:17:15;10.80;;;2.57;;
18188;SDS011;9219;50.396;8.546;2023-02-01T15:19:57;12.83;;;2.37;;
18188;SDS011;9219;50.396;8.546;2023-02-01T15:22:30;18.43;;;3.07;;
18188;SDS011;9219;50.396;8.546;2023-02-01T15:25:03;7.67;;;2.60;;
18188;SDS011;9219;50.396;8.546;2023-02-01T15:31:31;10.93;;;3.33;;
18188;SDS011;9219;50.396;8.546;2023-02-01T15:34:08;8.47;;;2.60;;
18188;SDS011;9219;50.396;8.546;2023-02-01T15:36:37;12.77;;;3.33;;
18188;SDS011;9219;50.396;8.546;2023-02-01T15:39:27;11.83;;;2.80;;
18188;SDS011;9219;50.396;8.546;2023-02-01T15:42:08;8.63;;;3.20;;
18188;SDS011;9219;50.396;8.546;2023-02-01T15:44:42;11.03;;;3.00;;
18188;SDS011;9219;50.396;8.546;2023-02-01T15:47:18;11.97;;;4.30;;
18188;SDS011;9219;50.396;8.546;2023-02-01T15:50:03;8.63;;;2.70;;
18188;SDS011;9219;50.396;8.546;2023-02-01T15:59:40;12.63;;;3.10;;
18188;SDS011;9219;50.396;8.546;2023-02-01T16:02:24;13.23;;;3.33;;
18188;SDS011;9219;50.396;8.546;2023-02-01T16:04:57;6.33;;;2.80;;
18188;SDS011;9219;50.396;8.546;2023-02-01T16:07:35;14.27;;;3.10;;
18188;SDS011;9219;50.396;8.546;2023-02-01T16:10:20;9.83;;;2.33;;
18188;SDS011;9219;50.396;8.546;2023-02-01T16:19:01;14.07;;;2.70;;
18188;SDS011;9219;50.396;8.546;2023-02-01T16:21:30;19.03;;;3.10;;
18188;SDS011;9219;50.396;8.546;2023-02-01T16:24:01;5.60;;;2.43;;
18188;SDS011;9219;50.396;8.546;2023-02-01T16:26:32;8.53;;;2.67;;
18188;SDS011;9219;50.396;8.546;2023-02-01T16:29:05;9.37;;;2.83;;
18188;SDS011;9219;50.396;8.546;2023-02-01T16:31:36;13.43;;;4.00;;
18188;SDS011;9219;50.396;8.546;2023-02-01T16:34:13;10.93;;;2.57;;
18188;SDS011;9219;50.396;8.546;2023-02-01T16:36:47;11.53;;;3.37;;
18188;SDS011;9219;50.396;8.546;2023-02-01T16:44:34;8.43;;;2.40;;
18188;SDS011;9219;50.396;8.546;2023-02-01T16:47:11;13.80;;;2.37;;
18188;SDS011;9219;50.396;8.546;2023-02-01T16:49:49;10.43;;;3.30;;
18188;SDS011;9219;50.396;8.546;2023-02-01T16:52:48;8.23;;;2.37;;
18188;SDS011;9219;50.396;8.546;2023-02-01T16:55:21;12.43;;;2.90;;
18188;SDS011;9219;50.396;8.546;2023-02-01T16:57:55;14.30;;;2.67;;
18188;SDS011;9219;50.396;8.546;2023-02-01T17:00:24;15.53;;;2.77;;
18188;SDS011;9219;50.396;8.546;2023-02-01T17:03:04;3.87;;;1.77;;
18188;SDS011;9219;50.396;8.546;2023-02-01T17:10:17;8.47;;;2.77;;
18188;SDS011;9219;50.396;8.546;2023-02-01T17:13:00;22.23;;;3.17;;
18188;SDS011;9219;50.396;8.546;2023-02-01T17:15:31;7.63;;;2.23;;
18188;SDS011;9219;50.396;8.546;2023-02-01T17:18:17;4.57;;;2.00;;
18188;SDS011;9219;50.396;8.546;2023-02-01T17:20:51;7.67;;;3.10;;
18188;SDS011;9219;50.396;8.546;2023-02-01T17:23:27;10.97;;;3.83;;
18188;SDS011;9219;50.396;8.546;2023-02-01T17:26:10;11.50;;;3.40;;
18188;SDS011;9219;50.396;8.546;2023-02-01T17:34:01;15.10;;;4.37;;
18188;SDS011;9219;50.396;8.546;2023-02-01T17:36:30;9.40;;;2.67;;
18188;SDS011;9219;50.396;8.546;2023-02-01T17:38:58;8.43;;;3.43;;
18188;SDS011;9219;50.396;8.546;2023-02-01T17:41:31;10.63;;;3.20;;
18188;SDS011;9219;50.396;8.546;2023-02-01T17:43:59;8.00;;;3.10;;
18188;SDS011;9219;50.396;8.546;2023-02-01T17:46:27;17.43;;;4.67;;
18188;SDS011;9219;50.396;8.546;2023-02-01T17:48:55;6.53;;;2.90;;
18188;SDS011;9219;50.396;8.546;2023-02-01T17:51:25;13.03;;;5.73;;
18188;SDS011;9219;50.396;8.546;2023-02-01T17:58:58;13.60;;;3.93;;
18188;SDS011;9219;50.396;8.546;2023-02-01T18:01:40;19.93;;;4.50;;
18188;SDS011;9219;50.396;8.546;2023-02-01T18:04:10;8.33;;;3.10;;
18188;SDS011;9219;50.396;8.546;2023-02-01T18:06:43;23.93;;;4.10;;
18188;SDS011;9219;50.396;8.546;2023-02-01T18:09:23;18.43;;;5.47;;
18188;SDS011;9219;50.396;8.546;2023-02-01T18:12:02;16.40;;;5.57;;
18188;SDS011;9219;50.396;8.546;2023-02-01T18:14:41;17.43;;;5.13;;
18188;SDS011;9219;50.396;8.546;2023-02-01T18:22:25;17.57;;;5.53;;
18188;SDS011;9219;50.396;8.546;2023-02-01T18:24:56;17.27;;;6.90;;
18188;SDS011;9219;50.396;8.546;2023-02-01T18:27:24;19.10;;;6.40;;
18188;SDS011;9219;50.396;8.546;2023-02-01T18:29:56;17.50;;;5.37;;
18188;SDS011;9219;50.396;8.546;2023-02-01T18:32:27;14.53;;;5.20;;
18188;SDS011;9219;50.396;8.546;2023-02-01T18:34:55;12.30;;;5.17;;
18188;SDS011;9219;50.396;8.546;2023-02-01T18:37:29;6.63;;;3.90;;
18188;SDS011;9219;50.396;8.546;2023-02-01T18:46:07;22.83;;;6.90;;
18188;SDS011;9219;50.396;8.546;2023-02-01T18:48:37;11.07;;;5.03;;
18188;SDS011;9219;50.396;8.546;2023-02-01T18:51:19;11.30;;;5.50;;
18188;SDS011;9219;50.396;8.546;2023-02-01T18:54:00;13.23;;;5.00;;
18188;SDS011;9219;50.396;8.546;2023-02-01T18:56:44;26.47;;;6.07;;
18188;SDS011;9219;50.396;8.546;2023-02-01T18:59:27;13.87;;;5.20;;
18188;SDS011;9219;50.396;8.546;2023-02-01T19:01:59;18.10;;;5.47;;
18188;SDS011;9219;50.396;8.546;2023-02-01T19:12:25;8.93;;;5.93;;
18188;SDS011;9219;50.396;8.546;2023-02-01T19:14:56;14.40;;;5.90;;
18188;SDS011;9219;50.396;8.546;2023-02-01T19:17:28;14.07;;;6.87;;
18188;SDS011;9219;50.396;8.546;2023-02-01T19:20:09;13.07;;;6.33;;
18188;SDS011;9219;50.396;8.546;2023-02-01T19:22:39;11.43;;;6.33;;
18188;SDS011;9219;50.396;8.546;2023-02-01T19:25:17;11.93;;;5.83;;
18188;SDS011;9219;50.396;8.546;2023-02-01T19:28:03;15.03;;;6.50;;
18188;SDS011;9219;50.396;8.546;2023-02-01T19:34:51;19.77;;;6.57;;
18188;SDS011;9219;50.396;8.546;2023-02-01T19:37:21;20.80;;;7.77;;
18188;SDS011;9219;50.396;8.546;2023-02-01T19:39:57;20.43;;;6.40;;
18188;SDS011;9219;50.396;8.546;2023-02-01T19:42:29;16.03;;;7.03;;
18188;SDS011;9219;50.396;8.546;2023-02-01T19:45:08;18.90;;;6.30;;
18188;SDS011;9219;50.396;8.546;2023-02-01T19:47:40;16.40;;;7.17;;
18188;SDS011;9219;50.396;8.546;2023-02-01T19:50:22;22.80;;;7.20;;
18188;SDS011;9219;50.396;8.546;2023-02-01T19:57:20;12.10;;;5.37;;
18188;SDS011;9219;50.396;8.546;2023-02-01T19:59:59;17.63;;;6.97;;
18188;SDS011;9219;50.396;8.546;2023-02-01T20:02:40;14.60;;;6.83;;
18188;SDS011;9219;50.396;8.546;2023-02-01T20:05:17;22.17;;;8.37;;
18188;SDS011;9219;50.396;8.546;2023-02-01T20:07:52;14.43;;;6.43;;
18188;SDS011;9219;50.396;8.546;2023-02-01T20:10:22;14.63;;;6.40;;
18188;SDS011;9219;50.396;8.546;2023-02-01T20:12:56;22.63;;;8.20;;